createdAt,value
2018-10-09T00:00:46.936Z,13.10
2018-10-09T00:03:49.882Z,13.20
2018-10-09T00:06:52.812Z,13.20
2018-10-09T00:09:55.897Z,13.20
2018-10-09T00:12:59.298Z,13.20
2018-10-09T00:16:02.522Z,13.20
2018-10-09T00:19:06.086Z,13.20
2018-10-09T00:22:09.316Z,13.20
2018-10-09T00:25:13.240Z,13.20
2018-10-09T00:28:17.611Z,13.20
2018-10-09T00:31:20.688Z,13.20
2018-10-09T00:34:24.374Z,13.20
2018-10-09T00:37:27.145Z,13.20
2018-10-09T00:40:30.556Z,13.20
2018-10-09T00:43:33.386Z,13.20
2018-10-09T00:46:36.763Z,13.20
2018-10-09T00:49:39.748Z,13.20
2018-10-09T00:52:42.792Z,13.20
2018-10-09T00:55:45.655Z,13.20
2018-10-09T00:58:49.343Z,13.20
2018-10-09T01:01:52.336Z,13.20
2018-10-09T01:04:55.373Z,13.20
2018-10-09T01:07:58.240Z,13.20
2018-10-09T01:11:01.184Z,13.20
2018-10-09T01:14:04.336Z,13.20
2018-10-09T01:17:07.495Z,13.20
2018-10-09T01:20:10.326Z,13.20
2018-10-09T01:23:13.474Z,13.20
2018-10-09T01:26:16.490Z,13.10
2018-10-09T01:29:20.064Z,13.10
2018-10-09T01:32:22.861Z,13.10
2018-10-09T01:35:25.660Z,13.20
2018-10-09T01:38:28.580Z,13.20
2018-10-09T01:41:31.621Z,13.10
2018-10-09T01:44:35.154Z,13.20
2018-10-09T01:47:38.096Z,13.20
2018-10-09T01:50:41.056Z,13.20
2018-10-09T01:53:44.222Z,13.20
2018-10-09T01:56:47.199Z,13.20
2018-10-09T01:59:51.120Z,13.20
2018-10-09T02:02:54.195Z,13.10
2018-10-09T02:05:58.116Z,13.20
2018-10-09T02:09:00.963Z,13.20
2018-10-09T02:12:03.961Z,13.20
2018-10-09T02:15:07.384Z,13.20
2018-10-09T02:18:10.524Z,13.20
2018-10-09T02:21:14.160Z,13.20
2018-10-09T02:24:16.955Z,13.20
2018-10-09T02:27:19.894Z,13.20
2018-10-09T02:30:23.382Z,13.20
2018-10-09T02:33:26.335Z,13.20
2018-10-09T02:36:29.330Z,13.20
2018-10-09T02:39:32.557Z,13.20
2018-10-09T02:42:35.901Z,13.20
2018-10-09T02:45:39.035Z,13.20
2018-10-09T02:48:42.105Z,13.10
2018-10-09T02:51:45.976Z,13.10
2018-10-09T02:54:51.184Z,13.10
2018-10-09T02:57:54.498Z,13.10
2018-10-09T03:00:58.154Z,13.10
2018-10-09T03:04:01.246Z,13.10
2018-10-09T03:07:05.406Z,13.10
2018-10-09T03:10:08.544Z,13.00
2018-10-09T03:13:12.131Z,13.00
2018-10-09T03:16:15.699Z,13.00
2018-10-09T03:19:18.865Z,13.00
2018-10-09T03:22:22.357Z,13.00
2018-10-09T03:25:26.998Z,13.00
2018-10-09T03:28:30.766Z,13.00
2018-10-09T03:31:34.797Z,13.00
2018-10-09T03:34:40.748Z,13.00
2018-10-09T03:37:47.961Z,13.00
2018-10-09T03:40:51.506Z,13.00
2018-10-09T03:43:55.521Z,13.00
2018-10-09T03:46:58.710Z,13.00
2018-10-09T03:50:02.456Z,13.00
2018-10-09T03:53:05.249Z,12.90
2018-10-09T03:56:08.084Z,13.00
2018-10-09T03:59:10.855Z,13.00
2018-10-09T04:02:13.576Z,13.00
2018-10-09T04:05:16.968Z,13.00
2018-10-09T04:08:21.241Z,13.00
2018-10-09T04:11:23.926Z,13.00
2018-10-09T04:14:26.616Z,13.10
2018-10-09T04:17:29.244Z,13.10
2018-10-09T04:20:31.954Z,13.10
2018-10-09T04:23:35.176Z,13.10
2018-10-09T04:26:37.836Z,13.10
2018-10-09T04:29:40.517Z,13.10
2018-10-09T04:32:43.355Z,13.10
2018-10-09T04:35:47.125Z,13.10
2018-10-09T04:38:50.411Z,13.10
2018-10-09T04:41:53.190Z,13.10
2018-10-09T04:44:56.136Z,13.10
2018-10-09T04:48:00.134Z,13.10
2018-10-09T04:51:05.682Z,13.10
2018-10-09T04:54:08.464Z,13.10
2018-10-09T04:57:12.208Z,13.10
2018-10-09T05:00:15.087Z,13.10
2018-10-09T05:03:18.464Z,13.10
2018-10-09T05:06:21.458Z,13.10
2018-10-09T05:09:29.883Z,13.10
2018-10-09T05:12:33.829Z,13.10
2018-10-09T05:15:36.799Z,13.10
2018-10-09T05:18:39.691Z,13.10
2018-10-09T05:21:42.520Z,13.10
2018-10-09T05:24:45.421Z,13.10
2018-10-09T05:27:48.698Z,13.10
2018-10-09T05:30:51.643Z,13.10
2018-10-09T05:33:54.500Z,13.10
2018-10-09T05:36:58.979Z,13.10
2018-10-09T05:40:01.969Z,13.00
2018-10-09T05:43:06.233Z,13.00
2018-10-09T05:46:09.230Z,13.00
2018-10-09T05:49:15.332Z,13.00
2018-10-09T05:52:19.042Z,13.00
2018-10-09T05:55:23.240Z,13.00
2018-10-09T05:58:30.510Z,13.10
2018-10-09T06:01:33.845Z,13.00
2018-10-09T06:04:37.087Z,13.10
2018-10-09T06:07:40.472Z,13.10
2018-10-09T06:10:43.465Z,13.10
2018-10-09T06:13:47.563Z,13.20
2018-10-09T06:16:51.015Z,13.20
2018-10-09T06:19:53.840Z,13.20
2018-10-09T06:23:05.170Z,13.20
2018-10-09T06:26:09.334Z,13.20
2018-10-09T06:29:13.311Z,13.20
2018-10-09T06:32:16.316Z,13.30
2018-10-09T06:35:20.152Z,13.30
2018-10-09T06:38:23.205Z,13.40
2018-10-09T06:41:26.638Z,13.40
2018-10-09T06:44:30.388Z,13.40
2018-10-09T06:47:35.065Z,13.50
2018-10-09T06:50:38.603Z,13.50
2018-10-09T06:53:41.777Z,13.50
2018-10-09T06:56:48.396Z,13.50
2018-10-09T06:59:51.487Z,13.50
2018-10-09T07:02:54.545Z,13.50
2018-10-09T07:05:58.612Z,13.50
2018-10-09T07:09:05.236Z,13.50
2018-10-09T07:12:08.597Z,13.50
2018-10-09T07:15:12.674Z,13.40
2018-10-09T07:18:16.639Z,13.40
2018-10-09T07:21:19.760Z,13.40
2018-10-09T07:24:23.109Z,13.40
2018-10-09T07:27:26.706Z,13.40
2018-10-09T07:30:30.218Z,13.40
2018-10-09T07:33:33.880Z,13.40
2018-10-09T07:36:37.204Z,13.50
2018-10-09T07:39:40.769Z,13.50
2018-10-09T07:42:46.484Z,13.50
2018-10-09T07:45:49.484Z,13.40
2018-10-09T07:48:52.637Z,13.40
2018-10-09T07:51:55.743Z,13.40
2018-10-09T07:54:59.027Z,13.40
2018-10-09T07:58:03.065Z,13.40
2018-10-09T08:01:06.590Z,13.40
2018-10-09T08:04:09.776Z,13.50
2018-10-09T08:07:14.746Z,13.50
2018-10-09T08:10:18.192Z,13.50
2018-10-09T08:13:21.315Z,13.50
2018-10-09T08:16:25.181Z,13.60
2018-10-09T08:19:28.377Z,13.60
2018-10-09T08:22:34.805Z,13.70
2018-10-09T08:25:44.803Z,13.70
2018-10-09T08:28:52.798Z,13.70
2018-10-09T08:32:05.963Z,13.80
2018-10-09T08:35:13.586Z,13.90
2018-10-09T08:41:52.904Z,13.80
2018-10-09T08:51:39.248Z,13.80
2018-10-09T08:54:55.516Z,13.70
2018-10-09T08:57:59.857Z,13.80
2018-10-09T09:08:02.522Z,13.80
2018-10-09T09:11:15.789Z,13.70
2018-10-09T09:14:29.921Z,13.80
2018-10-09T09:17:39.628Z,13.80
2018-10-09T09:20:44.542Z,13.80
2018-10-09T09:23:56.403Z,13.80
2018-10-09T09:33:57.204Z,13.90
2018-10-09T09:37:07.320Z,13.90
2018-10-09T09:40:11.319Z,14.00
2018-10-09T09:52:55.441Z,14.00
2018-10-09T09:59:13.653Z,14.00
2018-10-09T10:02:18.028Z,14.00
2018-10-09T10:05:21.960Z,14.00
2018-10-09T10:08:29.965Z,14.00
2018-10-09T10:11:36.068Z,14.00
2018-10-09T10:14:44.000Z,14.00
2018-10-09T10:17:55.973Z,14.00
2018-10-09T10:21:00.570Z,14.10
2018-10-09T10:24:05.815Z,14.10
2018-10-09T10:27:10.405Z,14.10
2018-10-09T10:30:17.364Z,14.20
2018-10-09T10:33:20.517Z,14.10
2018-10-09T10:36:23.516Z,14.20
2018-10-09T10:39:28.818Z,14.20
2018-10-09T10:42:33.804Z,14.20
2018-10-09T10:45:38.443Z,14.20
2018-10-09T10:48:55.234Z,14.20
2018-10-09T10:51:59.008Z,14.10
2018-10-09T10:55:04.863Z,14.20
2018-10-09T10:58:09.776Z,14.20
2018-10-09T11:01:16.892Z,14.20
2018-10-09T11:04:23.259Z,14.20
2018-10-09T11:07:27.398Z,14.30
2018-10-09T11:10:33.817Z,14.40
2018-10-09T11:13:36.957Z,14.40
2018-10-09T11:16:40.998Z,14.50
2018-10-09T11:19:45.120Z,14.60
2018-10-09T11:22:51.740Z,14.60
2018-10-09T11:25:55.562Z,14.70
2018-10-09T11:28:59.558Z,14.70
2018-10-09T11:32:03.923Z,14.70
2018-10-09T11:35:07.872Z,14.80
2018-10-09T11:38:12.731Z,14.90
2018-10-09T11:41:15.936Z,14.90
2018-10-09T11:44:22.070Z,14.90
2018-10-09T11:47:25.274Z,15.00
2018-10-09T11:50:28.382Z,15.00
2018-10-09T11:53:37.859Z,15.00
2018-10-09T11:56:44.743Z,15.10
2018-10-09T11:59:47.669Z,15.10
2018-10-09T12:02:50.865Z,15.00
2018-10-09T12:05:56.177Z,15.00
2018-10-09T12:08:59.549Z,15.10
2018-10-09T12:12:04.834Z,15.10
2018-10-09T12:15:08.168Z,15.10
2018-10-09T12:18:11.006Z,15.10
2018-10-09T12:21:16.472Z,15.20
2018-10-09T12:24:19.367Z,15.20
2018-10-09T12:27:23.660Z,15.40
2018-10-09T12:30:27.101Z,15.40
2018-10-09T12:33:29.915Z,15.40
2018-10-09T12:36:33.426Z,15.30
2018-10-09T12:39:36.512Z,15.30
2018-10-09T12:42:39.593Z,15.30
2018-10-09T12:45:42.539Z,15.40
2018-10-09T12:48:45.553Z,15.50
2018-10-09T12:51:48.453Z,15.60
2018-10-09T13:01:12.452Z,15.70
2018-10-09T13:04:16.268Z,15.80
2018-10-09T13:07:23.961Z,15.70
2018-10-09T13:10:26.876Z,15.80
2018-10-09T13:13:30.340Z,15.90
2018-10-09T13:16:33.542Z,16.00
2018-10-09T13:19:36.610Z,15.90
2018-10-09T13:22:40.503Z,15.90
2018-10-09T13:25:43.869Z,16.20
2018-10-09T13:28:48.480Z,16.20
2018-10-09T13:31:52.643Z,16.10
2018-10-09T13:34:56.005Z,15.90
2018-10-09T13:37:59.138Z,15.70
2018-10-09T13:41:03.299Z,15.50
2018-10-09T13:44:07.557Z,15.40
2018-10-09T13:47:10.462Z,15.30
2018-10-09T13:50:13.436Z,15.30
2018-10-09T13:53:16.325Z,15.30
2018-10-09T13:56:19.179Z,15.20
2018-10-09T13:59:24.291Z,15.30
2018-10-09T14:02:27.418Z,15.30
2018-10-09T14:05:30.485Z,15.40
2018-10-09T14:08:33.544Z,15.40
2018-10-09T14:11:36.557Z,15.40
2018-10-09T14:14:39.502Z,15.30
2018-10-09T14:18:01.535Z,15.30
2018-10-09T14:21:05.498Z,15.20
2018-10-09T14:24:08.706Z,15.20
2018-10-09T14:27:13.010Z,15.20
2018-10-09T14:30:16.568Z,15.10
2018-10-09T14:33:19.376Z,15.10
2018-10-09T14:36:22.660Z,15.10
2018-10-09T14:39:26.033Z,15.10
2018-10-09T14:42:28.898Z,15.00
2018-10-09T14:45:31.820Z,15.00
2018-10-09T14:48:34.769Z,15.00
2018-10-09T14:51:38.487Z,15.00
2018-10-09T14:54:41.362Z,14.90
2018-10-09T14:57:47.952Z,14.90
2018-10-09T15:00:51.327Z,14.90
2018-10-09T15:03:54.260Z,14.90
2018-10-09T15:06:57.062Z,14.90
2018-10-09T15:10:00.095Z,14.80
2018-10-09T15:13:03.020Z,14.80
2018-10-09T15:16:06.560Z,14.80
2018-10-09T15:19:09.860Z,14.70
2018-10-09T15:22:12.720Z,14.70
2018-10-09T15:25:15.522Z,14.70
2018-10-09T15:28:18.401Z,14.70
2018-10-09T15:31:22.202Z,14.60
2018-10-09T15:34:25.609Z,14.60
2018-10-09T15:40:46.248Z,14.50
2018-10-09T15:43:49.588Z,14.50
2018-10-09T15:46:52.788Z,14.50
2018-10-09T15:49:55.972Z,14.50
2018-10-09T15:52:58.988Z,14.50
2018-10-09T15:56:02.084Z,14.50
2018-10-09T15:59:10.804Z,14.50
2018-10-09T16:02:13.746Z,14.50
2018-10-09T16:05:16.951Z,14.40
2018-10-09T16:22:33.860Z,14.40
2018-10-09T16:25:37.131Z,14.30
2018-10-09T16:28:40.986Z,14.30
2018-10-09T16:31:43.775Z,14.30
2018-10-09T16:34:46.484Z,14.30
2018-10-09T16:37:49.982Z,14.30
2018-10-09T16:40:52.878Z,14.30
2018-10-09T16:43:56.398Z,14.30
2018-10-09T16:47:03.700Z,14.30
2018-10-09T16:50:06.724Z,14.20
2018-10-09T16:53:09.605Z,14.30
2018-10-09T16:56:12.654Z,14.30
2018-10-09T16:59:15.843Z,14.30
2018-10-09T17:02:19.531Z,14.30
2018-10-09T17:05:22.565Z,14.30
2018-10-09T17:08:26.060Z,14.30
2018-10-09T17:11:29.911Z,14.20
2018-10-09T17:14:33.689Z,14.20
2018-10-09T17:17:37.925Z,14.20
2018-10-09T17:20:44.732Z,14.20
2018-10-09T17:23:48.241Z,14.10
2018-10-09T17:26:53.151Z,14.00
2018-10-09T17:29:56.280Z,14.00
2018-10-09T17:32:59.384Z,14.00
2018-10-09T17:36:03.482Z,14.00
2018-10-09T17:39:10.550Z,13.90
2018-10-09T17:42:15.111Z,13.80
2018-10-09T17:45:18.492Z,13.80
2018-10-09T17:48:22.654Z,13.80
2018-10-09T17:51:25.762Z,13.70
2018-10-09T17:54:28.652Z,13.80
2018-10-09T17:57:31.704Z,13.80
2018-10-09T18:00:36.629Z,13.80
2018-10-09T18:03:40.612Z,13.80
2018-10-09T18:06:45.401Z,13.80
2018-10-09T18:09:48.780Z,13.80
2018-10-09T18:12:52.740Z,13.80
2018-10-09T18:15:56.790Z,13.90
2018-10-09T18:19:08.493Z,13.90
2018-10-09T18:22:11.638Z,13.80
2018-10-09T18:25:15.202Z,13.90
2018-10-09T18:28:19.148Z,13.90
2018-10-09T18:31:22.572Z,13.90
2018-10-09T18:34:26.754Z,13.90
2018-10-09T18:37:29.642Z,13.90
2018-10-09T18:40:33.715Z,13.90
2018-10-09T18:43:37.177Z,14.00
2018-10-09T18:46:41.717Z,14.00
2018-10-09T18:49:45.602Z,14.00
2018-10-09T18:52:49.374Z,14.00
2018-10-09T18:55:53.184Z,14.00
2018-10-09T18:58:56.575Z,14.00
2018-10-09T19:01:59.506Z,13.90
2018-10-09T19:05:02.505Z,13.90
2018-10-09T19:08:07.281Z,14.00
2018-10-09T19:11:10.196Z,14.00
2018-10-09T19:14:13.464Z,14.00
2018-10-09T19:17:16.509Z,13.90
2018-10-09T19:20:19.401Z,14.00
2018-10-09T19:23:27.986Z,14.00
2018-10-09T19:26:32.340Z,14.00
2018-10-09T19:29:37.232Z,14.00
2018-10-09T19:32:40.905Z,13.90
2018-10-09T19:35:43.916Z,13.90
2018-10-09T19:38:47.090Z,13.90
2018-10-09T19:41:50.469Z,13.90
2018-10-09T19:44:54.788Z,13.90
2018-10-09T19:47:58.660Z,14.00
2018-10-09T19:51:01.782Z,13.90
2018-10-09T19:54:17.853Z,14.00
2018-10-09T19:57:21.137Z,14.00
2018-10-09T20:00:25.435Z,14.00
2018-10-09T20:03:28.328Z,13.90
2018-10-09T20:06:31.438Z,14.00
2018-10-09T20:09:34.178Z,13.90
2018-10-09T20:12:36.932Z,13.90
2018-10-09T20:15:39.679Z,13.90
2018-10-09T20:18:42.564Z,13.90
2018-10-09T20:21:45.416Z,13.90
2018-10-09T20:24:48.195Z,13.90
2018-10-09T20:27:50.996Z,13.90
2018-10-09T20:30:53.754Z,13.90
2018-10-09T20:33:56.621Z,13.90
2018-10-09T20:36:59.392Z,13.90
2018-10-09T20:40:02.851Z,13.90
2018-10-09T20:43:06.593Z,13.90
2018-10-09T20:46:09.350Z,13.90
2018-10-09T20:49:12.190Z,13.90
2018-10-09T20:52:21.295Z,13.90
2018-10-09T20:55:31.717Z,13.90
2018-10-09T20:58:35.922Z,13.90
2018-10-09T21:01:38.640Z,13.90
2018-10-09T21:04:41.426Z,13.90
2018-10-09T21:07:44.223Z,13.90
2018-10-09T21:10:46.923Z,13.90
2018-10-09T21:13:50.593Z,13.90
2018-10-09T21:16:53.376Z,13.90
2018-10-09T21:19:56.109Z,13.90
2018-10-09T21:22:58.965Z,14.00
2018-10-09T21:26:01.690Z,14.00
2018-10-09T21:29:04.376Z,14.00
2018-10-09T21:32:07.177Z,14.00
2018-10-09T21:35:09.991Z,14.00
2018-10-09T21:38:12.879Z,14.00
2018-10-09T21:41:15.610Z,14.00
2018-10-09T21:44:18.371Z,14.00
2018-10-09T21:47:21.096Z,14.00
2018-10-09T21:50:23.978Z,14.00
2018-10-09T21:53:27.361Z,14.00
2018-10-09T21:56:30.160Z,14.00
2018-10-09T21:59:32.863Z,14.00
2018-10-09T22:02:35.636Z,13.90
2018-10-09T22:05:38.360Z,13.90
2018-10-09T22:08:51.534Z,13.90
2018-10-09T22:11:54.334Z,13.90
2018-10-09T22:14:57.095Z,13.90
2018-10-09T22:17:59.858Z,13.80
2018-10-09T22:21:03.100Z,13.80
2018-10-09T22:24:05.937Z,13.90
2018-10-09T22:27:08.694Z,13.80
2018-10-09T22:30:13.481Z,13.80
2018-10-09T22:33:16.198Z,13.90
2018-10-09T22:36:18.881Z,13.80
2018-10-09T22:39:21.668Z,13.80
2018-10-09T22:42:24.402Z,13.80
2018-10-09T22:45:27.191Z,13.80
2018-10-09T22:48:29.966Z,13.80
2018-10-09T22:51:32.665Z,13.70
2018-10-09T22:54:35.454Z,13.80
2018-10-09T22:57:38.227Z,13.70
2018-10-09T23:00:40.952Z,13.70
2018-10-09T23:03:43.930Z,13.70
2018-10-09T23:06:46.743Z,13.80
2018-10-09T23:09:49.446Z,13.80
2018-10-09T23:12:52.210Z,13.80
2018-10-09T23:15:54.999Z,13.80
2018-10-09T23:18:57.967Z,13.80
2018-10-09T23:22:00.651Z,13.80
2018-10-09T23:25:04.032Z,13.80
2018-10-09T23:28:06.934Z,13.80
2018-10-09T23:31:09.706Z,13.80
2018-10-09T23:34:12.284Z,13.80
2018-10-09T23:37:14.840Z,13.90
2018-10-09T23:40:17.733Z,13.90
2018-10-09T23:43:20.334Z,13.90
2018-10-09T23:46:22.921Z,13.90
2018-10-09T23:49:25.530Z,13.80
2018-10-09T23:52:28.071Z,13.80
2018-10-09T23:55:30.722Z,13.80
2018-10-09T23:58:33.323Z,13.80
